createdAt,value
2018-04-07T00:03:04.719Z,48.12
2018-04-07T00:08:06.043Z,48.06
2018-04-07T00:13:07.343Z,48.33
2018-04-07T00:18:09.398Z,47.86
2018-04-07T00:23:10.703Z,47.80
2018-04-07T00:28:12.035Z,47.87
2018-04-07T00:33:14.107Z,48.27
2018-04-07T00:38:15.399Z,48.51
2018-04-07T00:43:16.723Z,48.93
2018-04-07T00:48:18.763Z,48.93
2018-04-07T00:53:20.067Z,48.73
2018-04-07T00:58:21.396Z,48.63
2018-04-07T01:03:22.836Z,48.93
2018-04-07T01:08:24.326Z,49.00
2018-04-07T01:13:25.766Z,49.34
2018-04-07T01:18:27.259Z,49.39
2018-04-07T01:23:28.599Z,49.60
2018-04-07T01:28:29.901Z,49.87
2018-04-07T01:33:31.251Z,50.26
2018-04-07T01:38:33.288Z,49.90
2018-04-07T01:43:34.586Z,50.36
2018-04-07T01:48:35.875Z,50.65
2018-04-07T01:53:37.200Z,50.63
2018-04-07T01:58:38.512Z,50.78
2018-04-07T02:03:40.550Z,51.04
2018-04-07T02:08:41.876Z,50.58
2018-04-07T02:13:43.183Z,50.45
2018-04-07T02:18:45.239Z,50.60
2018-04-07T02:23:46.538Z,50.64
2018-04-07T02:28:47.853Z,50.74
2018-04-07T02:33:49.195Z,50.50
2018-04-07T02:38:50.478Z,50.47
2018-04-07T02:43:51.836Z,50.64
2018-04-07T02:48:53.122Z,51.33
2018-04-07T02:53:55.151Z,51.21
2018-04-07T02:58:56.473Z,51.18
2018-04-07T03:03:57.777Z,51.53
2018-04-07T03:08:59.092Z,52.21
2018-04-07T03:14:01.155Z,52.07
2018-04-07T03:19:02.492Z,52.09
2018-04-07T03:24:04.570Z,52.39
2018-04-07T03:29:05.900Z,52.80
2018-04-07T03:34:07.959Z,53.08
2018-04-07T03:39:09.259Z,52.64
2018-04-07T03:44:10.560Z,53.28
2018-04-07T03:49:11.875Z,53.16
2018-04-07T03:54:13.942Z,53.25
2018-04-07T03:59:15.263Z,53.40
2018-04-07T04:04:17.339Z,53.12
2018-04-07T04:09:18.642Z,53.29
2018-04-07T04:14:19.955Z,53.03
2018-04-07T04:19:22.004Z,53.16
2018-04-07T04:24:23.302Z,53.17
2018-04-07T04:29:24.618Z,52.92
2018-04-07T04:34:25.919Z,52.74
2018-04-07T04:39:27.971Z,52.81
2018-04-07T04:44:29.290Z,53.24
2018-04-07T04:49:30.587Z,52.83
2018-04-07T04:54:31.917Z,52.48
2018-04-07T04:59:33.207Z,53.14
2018-04-07T05:04:34.515Z,52.83
2018-04-07T05:09:35.819Z,52.15
2018-04-07T05:14:37.129Z,51.52
2018-04-07T05:19:38.596Z,51.49
2018-04-07T05:24:39.927Z,50.97
2018-04-07T05:29:41.274Z,50.66
2018-04-07T05:34:49.709Z,50.06
2018-04-07T05:39:51.076Z,50.06
2018-04-07T05:44:52.391Z,49.44
2018-04-07T05:49:53.675Z,48.84
2018-04-07T05:54:54.966Z,48.60
2018-04-07T05:59:56.274Z,48.73
2018-04-07T06:04:57.639Z,48.50
2018-04-07T06:09:58.952Z,49.19
2018-04-07T06:15:00.243Z,48.89
2018-04-07T06:20:01.565Z,48.75
2018-04-07T06:25:03.631Z,48.64
2018-04-07T06:30:04.948Z,48.24
2018-04-07T06:35:06.265Z,47.49
2018-04-07T06:40:08.319Z,46.83
2018-04-07T06:45:09.657Z,45.50
2018-04-07T06:50:11.713Z,44.92
2018-04-07T06:55:13.035Z,44.79
2018-04-07T07:00:14.362Z,44.36
2018-04-07T07:05:15.680Z,44.55
2018-04-07T07:10:16.979Z,43.81
2018-04-07T07:15:18.291Z,43.54
2018-04-07T07:20:19.607Z,43.69
2018-04-07T07:25:20.935Z,42.76
2018-04-07T07:30:22.272Z,42.77
2018-04-07T07:35:24.303Z,42.31
2018-04-07T07:40:25.609Z,42.05
2018-04-07T07:45:26.903Z,41.62
2018-04-07T07:50:28.207Z,41.31
2018-04-07T07:55:29.513Z,40.38
2018-04-07T08:00:30.827Z,40.80
2018-04-07T08:05:33.018Z,38.88
2018-04-07T08:10:35.098Z,38.35
2018-04-07T08:15:36.426Z,37.95
2018-04-07T08:20:38.513Z,38.83
2018-04-07T08:25:39.824Z,37.73
2018-04-07T08:30:41.883Z,37.18
2018-04-07T08:35:43.227Z,37.19
2018-04-07T08:40:45.309Z,36.94
2018-04-07T08:45:46.623Z,37.08
2018-04-07T08:50:48.694Z,36.27
2018-04-07T08:55:50.023Z,36.56
2018-04-07T09:00:52.076Z,36.18
2018-04-07T09:05:53.414Z,37.13
2018-04-07T09:10:55.456Z,35.45
2018-04-07T09:15:56.788Z,35.45
2018-04-07T09:20:58.087Z,36.13
2018-04-07T09:26:00.124Z,35.72
2018-04-07T09:31:07.652Z,35.68
2018-04-07T09:36:08.971Z,35.83
2018-04-07T09:41:10.263Z,34.93
2018-04-07T09:46:11.573Z,34.16
2018-04-07T09:51:12.878Z,34.94
2018-04-07T09:56:14.195Z,33.88
2018-04-07T10:01:15.530Z,34.46
2018-04-07T10:06:16.854Z,33.71
2018-04-07T10:11:18.938Z,33.62
2018-04-07T10:16:20.251Z,33.29
2018-04-07T10:21:22.311Z,32.70
2018-04-07T10:26:23.684Z,32.73
2018-04-07T10:31:25.047Z,32.91
2018-04-07T10:36:27.231Z,32.36
2018-04-07T10:41:28.547Z,32.82
2018-04-07T10:46:30.596Z,32.30
2018-04-07T10:51:31.895Z,31.58
2018-04-07T10:56:33.211Z,31.31
2018-04-07T11:01:34.555Z,30.89
2018-04-07T11:06:35.860Z,31.26
2018-04-07T11:11:37.170Z,31.40
2018-04-07T11:16:38.507Z,31.00
2018-04-07T11:21:39.811Z,31.14
2018-04-07T11:26:41.122Z,31.04
2018-04-07T11:31:42.452Z,31.36
2018-04-07T11:36:44.783Z,30.31
2018-04-07T11:41:46.123Z,30.58
2018-04-07T11:46:47.439Z,30.06
2018-04-07T11:51:50.260Z,31.05
2018-04-07T11:56:52.320Z,30.37
2018-04-07T12:01:53.668Z,30.19
2018-04-07T12:06:55.699Z,29.90
2018-04-07T12:11:57.032Z,29.57
2018-04-07T12:16:58.337Z,29.74
2018-04-07T12:22:00.379Z,29.38
2018-04-07T12:27:01.770Z,29.69
2018-04-07T12:32:03.111Z,29.72
2018-04-07T12:37:04.532Z,27.90
2018-04-07T12:42:05.835Z,29.45
2018-04-07T12:47:07.224Z,30.44
2018-04-07T12:52:08.567Z,28.53
2018-04-07T12:57:09.881Z,28.47
2018-04-07T13:02:11.918Z,28.59
2018-04-07T13:07:13.257Z,27.91
2018-04-07T13:12:14.566Z,28.09
2018-04-07T13:17:16.628Z,27.61
2018-04-07T13:22:17.967Z,26.72
2018-04-07T13:27:19.386Z,27.74
2018-04-07T13:32:20.719Z,27.91
2018-04-07T13:37:22.111Z,26.66
2018-04-07T13:42:23.440Z,26.12
2018-04-07T13:47:24.758Z,26.38
2018-04-07T13:52:26.088Z,26.89
2018-04-07T13:57:27.568Z,27.01
2018-04-07T14:02:28.896Z,25.89
2018-04-07T14:07:30.223Z,26.61
2018-04-07T14:12:31.536Z,26.68
2018-04-07T14:17:32.856Z,25.72
2018-04-07T14:22:34.887Z,25.29
2018-04-07T14:27:36.191Z,25.52
2018-04-07T14:32:37.528Z,24.77
2018-04-07T14:37:39.583Z,25.16
2018-04-07T14:42:40.881Z,25.36
2018-04-07T14:47:42.188Z,24.97
2018-04-07T14:52:43.487Z,24.83
2018-04-07T14:57:44.808Z,24.60
2018-04-07T15:02:46.100Z,25.22
2018-04-07T15:07:47.409Z,24.21
2018-04-07T15:12:48.715Z,23.55
2018-04-07T15:17:50.046Z,23.38
2018-04-07T15:22:52.092Z,24.55
2018-04-07T15:27:53.386Z,24.25
2018-04-07T15:32:54.707Z,24.89
2018-04-07T15:37:56.041Z,25.10
2018-04-07T15:42:57.335Z,25.30
2018-04-07T15:47:58.639Z,25.84
2018-04-07T15:52:59.942Z,26.04
2018-04-07T15:58:01.286Z,26.27
2018-04-07T16:03:03.335Z,27.14
2018-04-07T16:08:05.509Z,27.13
2018-04-07T16:13:14.579Z,27.61
2018-04-07T16:18:15.936Z,28.02
2018-04-07T16:23:17.238Z,28.28
2018-04-07T16:28:19.338Z,28.77
2018-04-07T16:33:20.707Z,29.43
2018-04-07T16:38:22.053Z,29.98
2018-04-07T16:43:23.398Z,30.02
2018-04-07T16:48:24.755Z,30.58
2018-04-07T16:53:26.096Z,30.11
2018-04-07T16:58:28.207Z,30.23
2018-04-07T17:03:30.268Z,29.74
2018-04-07T17:08:31.600Z,30.06
2018-04-07T17:13:32.904Z,30.45
2018-04-07T17:18:34.398Z,30.75
2018-04-07T17:23:35.788Z,30.70
2018-04-07T17:28:37.151Z,31.08
2018-04-07T17:33:38.479Z,31.45
2018-04-07T17:38:39.788Z,31.56
2018-04-07T17:43:41.926Z,32.23
2018-04-07T17:48:43.247Z,32.57
2018-04-07T17:53:44.554Z,33.08
2018-04-07T17:58:45.852Z,33.22
2018-04-07T18:03:47.167Z,33.58
2018-04-07T18:08:48.474Z,34.09
2018-04-07T18:13:49.911Z,34.62
2018-04-07T18:18:51.376Z,35.08
2018-04-07T18:23:53.457Z,35.43
2018-04-07T18:28:56.856Z,35.69
2018-04-07T18:33:58.752Z,35.88
2018-04-07T18:39:01.799Z,36.19
2018-04-07T18:44:03.180Z,36.76
2018-04-07T18:49:04.801Z,37.12
2018-04-07T18:54:06.901Z,37.81
2018-04-07T18:59:08.256Z,37.98
2018-04-07T19:04:10.484Z,38.18
2018-04-07T19:09:12.696Z,38.74
2018-04-07T19:14:14.296Z,38.82
2018-04-07T19:19:15.658Z,39.29
2018-04-07T19:24:16.994Z,39.57
2018-04-07T19:29:18.663Z,39.91
2018-04-07T19:34:20.093Z,40.06
2018-04-07T19:39:22.322Z,40.02
2018-04-07T19:44:23.783Z,40.63
2018-04-07T19:49:25.141Z,40.86
2018-04-07T19:54:26.467Z,41.25
2018-04-07T19:59:27.783Z,42.47
2018-04-07T20:04:29.123Z,42.74
2018-04-07T20:09:30.458Z,42.85
2018-04-07T20:14:31.784Z,43.47
2018-04-07T20:19:33.117Z,43.34
2018-04-07T20:24:34.431Z,43.21
2018-04-07T20:29:35.729Z,43.20
2018-04-07T20:34:37.768Z,43.10
2018-04-07T20:39:39.083Z,43.37
2018-04-07T20:44:40.412Z,44.90
2018-04-07T20:49:42.463Z,45.76
2018-04-07T20:54:43.813Z,44.60
2018-04-07T20:59:45.096Z,43.96
2018-04-07T21:04:47.139Z,44.75
2018-04-07T21:09:48.440Z,44.98
2018-04-07T21:14:49.768Z,45.21
2018-04-07T21:19:51.070Z,45.02
2018-04-07T21:24:53.150Z,44.42
2018-04-07T21:29:54.534Z,44.00
2018-04-07T21:34:55.863Z,43.51
2018-04-07T21:39:57.919Z,43.26
2018-04-07T21:44:59.248Z,42.99
2018-04-07T21:50:00.539Z,43.42
2018-04-07T21:55:01.853Z,43.93
2018-04-07T22:00:03.171Z,43.91
2018-04-07T22:05:04.508Z,43.56
2018-04-07T22:10:06.586Z,42.93
2018-04-07T22:15:07.928Z,43.06
2018-04-07T22:20:09.259Z,43.82
2018-04-07T22:25:10.602Z,44.97
2018-04-07T22:30:12.715Z,45.20
2018-04-07T22:35:14.244Z,44.62
2018-04-07T22:40:15.567Z,43.12
2018-04-07T22:45:16.866Z,44.99
2018-04-07T22:50:18.932Z,46.49
2018-04-07T22:55:20.259Z,48.59
2018-04-07T23:00:23.403Z,50.05
2018-04-07T23:05:25.461Z,50.37
2018-04-07T23:10:26.778Z,50.62
2018-04-07T23:15:28.100Z,51.39
2018-04-07T23:20:29.398Z,51.72
2018-04-07T23:25:30.682Z,51.14
2018-04-07T23:30:32.012Z,51.79
2018-04-07T23:35:33.319Z,51.17
2018-04-07T23:40:34.683Z,51.86
2018-04-07T23:45:36.012Z,51.03
2018-04-07T23:50:38.068Z,50.88
2018-04-07T23:55:39.387Z,51.25
